Time;durP1;ratioP1;P1;durP2;ratioP2;P2;SDS_P1;SDS_P2;PMS_P1;PMS_P2;Temp;Humidity;BMP_temperature;BMP_pressure;BME280_temperature;BME280_humidity;BME280_pressure;Samples;Min_cycle;Max_cycle;Signal;HPM_P1;HPM_P2
2024/01/23 09:07:16;;;;;;;7.20;1.40;;;6.60;99.90;;;;;;2618185;23;20387;-76
2024/01/23 09:09:44;;;;;;;10.30;1.93;;;6.60;99.90;;;;;;4936190;29;20260;-76
2024/01/23 09:12:11;;;;;;;10.97;1.30;;;6.80;99.90;;;;;;4938324;29;20248;-77
2024/01/23 09:14:38;;;;;;;10.07;1.10;;;7.00;99.90;;;;;;4937744;29;20730;-76
2024/01/23 09:17:05;;;;;;;5.37;1.20;;;7.00;99.90;;;;;;4938111;29;20247;-76
2024/01/23 09:19:32;;;;;;;7.00;1.07;;;7.00;99.90;;;;;;4938013;29;20237;-76
2024/01/23 09:21:59;;;;;;;10.60;1.80;;;7.10;99.90;;;;;;4937862;28;20205;-76
2024/01/23 09:24:27;;;;;;;5.20;1.30;;;7.20;99.90;;;;;;4937687;29;20239;-75
2024/01/23 09:26:59;;;;;;;12.23;2.17;;;7.20;99.90;;;;;;4938133;29;20303;-75
2024/01/23 09:29:26;;;;;;;10.90;1.60;;;7.20;99.90;;;;;;4937061;29;20244;-76
2024/01/23 09:31:53;;;;;;;3.83;1.10;;;7.10;99.90;;;;;;4937766;29;20215;-76
2024/01/23 09:34:20;;;;;;;8.70;1.43;;;7.20;99.90;;;;;;4937788;29;20213;-76
2024/01/23 09:36:47;;;;;;;9.53;1.60;;;7.30;99.90;;;;;;4937410;29;20726;-77
2024/01/23 09:39:14;;;;;;;9.67;1.67;;;7.30;99.90;;;;;;4937469;29;20655;-77
2024/01/23 09:41:46;;;;;;;5.83;1.40;;;7.40;99.90;;;;;;4937736;29;20217;-75
2024/01/23 09:44:14;;;;;;;6.50;1.90;;;7.60;99.90;;;;;;4937673;29;20209;-76
2024/01/23 09:46:43;;;;;;;5.67;1.10;;;7.60;99.90;;;;;;4937618;29;20213;-76
2024/01/23 09:49:10;;;;;;;5.73;1.43;;;7.60;99.90;;;;;;4932557;29;20205;-81
2024/01/23 09:51:40;;;;;;;8.93;1.20;;;7.60;99.90;;;;;;4939033;29;20205;-82
2024/01/23 09:54:08;;;;;;;18.73;1.80;;;7.60;99.90;;;;;;4942736;29;20308;-80
2024/01/23 09:56:39;;;;;;;9.83;1.17;;;7.60;99.90;;;;;;4956938;29;20214;-82
2024/01/23 09:59:09;;;;;;;9.37;1.20;;;7.70;99.90;;;;;;4934741;29;20213;-81
2024/01/23 10:01:37;;;;;;;11.23;1.10;;;7.80;99.90;;;;;;4936796;29;20604;-84
2024/01/23 10:04:05;;;;;;;7.03;1.83;;;7.90;99.90;;;;;;4936364;29;20303;-80
2024/01/23 10:06:32;;;;;;;8.73;1.37;;;8.10;99.90;;;;;;4938592;29;20621;-86
2024/01/23 10:08:59;;;;;;;7.03;0.93;;;8.20;99.90;;;;;;4932973;29;20251;-82
2024/01/23 10:11:28;;;;;;;7.43;1.07;;;8.30;99.90;;;;;;4916979;29;20288;-79
2024/01/23 10:13:58;;;;;;;6.70;1.20;;;8.40;99.90;;;;;;4917068;29;20228;-82
2024/01/23 10:16:27;;;;;;;17.03;2.63;;;8.60;99.90;;;;;;4916601;29;20328;-84
2024/01/23 10:18:56;;;;;;;4.93;1.20;;;8.60;99.90;;;;;;4934000;29;20208;-78
2024/01/23 10:21:23;;;;;;;11.20;2.60;;;8.80;99.90;;;;;;4938216;29;20208;-78
2024/01/23 10:23:50;;;;;;;3.70;0.80;;;8.80;99.90;;;;;;4937398;29;20217;-80
2024/01/23 10:26:18;;;;;;;7.83;1.13;;;8.90;99.90;;;;;;4943866;28;20255;-77
2024/01/23 10:28:45;;;;;;;5.03;1.03;;;8.90;99.90;;;;;;4957072;28;20189;-74
2024/01/23 10:31:12;;;;;;;12.37;1.10;;;8.80;99.90;;;;;;4940477;29;20197;-78
2024/01/23 10:33:41;;;;;;;11.53;1.40;;;8.80;99.90;;;;;;4936745;29;20218;-76
2024/01/23 10:36:09;;;;;;;10.33;1.60;;;8.80;99.90;;;;;;4919181;29;20762;-75
2024/01/23 10:38:36;;;;;;;7.97;1.40;;;9.00;99.90;;;;;;4934627;29;20323;-77
2024/01/23 10:41:04;;;;;;;7.83;1.47;;;9.10;99.90;;;;;;4936325;29;20664;-78
2024/01/23 10:43:31;;;;;;;13.70;2.10;;;9.10;99.90;;;;;;4944033;29;20204;-78
2024/01/23 10:45:59;;;;;;;2.93;1.00;;;9.10;99.90;;;;;;4923854;29;20320;-78
2024/01/23 10:48:27;;;;;;;8.10;2.63;;;9.20;99.90;;;;;;4936573;29;20830;-79
2024/01/23 10:51:01;;;;;;;12.83;2.37;;;9.20;99.90;;;;;;4918848;29;20538;-78
2024/01/23 10:53:34;;;;;;;4.90;1.23;;;9.20;99.90;;;;;;4917150;29;20224;-78
2024/01/23 10:56:02;;;;;;;13.07;1.17;;;9.30;99.90;;;;;;4917303;29;20232;-77
2024/01/23 10:58:33;;;;;;;6.60;1.03;;;9.20;99.90;;;;;;4922058;29;20232;-78
2024/01/23 11:01:02;;;;;;;8.93;1.70;;;9.30;99.90;;;;;;4918127;29;20300;-79
2024/01/23 11:03:29;;;;;;;7.10;1.60;;;9.30;99.90;;;;;;4917065;29;20214;-78
2024/01/23 11:06:02;;;;;;;7.63;1.10;;;9.30;99.90;;;;;;4916847;29;20236;-78
2024/01/23 11:08:40;;;;;;;5.80;1.30;;;9.20;99.90;;;;;;4921112;29;20227;-78
2024/01/23 11:11:23;;;;;;;9.93;1.50;;;9.20;99.90;;;;;;4917145;29;20202;-78
2024/01/23 11:13:55;;;;;;;12.83;1.93;;;9.40;99.90;;;;;;4923832;29;20299;-78
2024/01/23 11:16:23;;;;;;;6.40;1.30;;;9.40;99.90;;;;;;4935926;29;20582;-76
2024/01/23 11:18:53;;;;;;;10.10;1.00;;;9.50;99.90;;;;;;4935742;29;20236;-78
2024/01/23 11:21:23;;;;;;;6.80;1.17;;;9.60;99.90;;;;;;4935877;29;20213;-77
2024/01/23 11:24:00;;;;;;;13.93;1.77;;;9.40;99.90;;;;;;4935669;29;20213;-78
2024/01/23 11:26:28;;;;;;;14.23;3.17;;;9.40;99.90;;;;;;4936101;29;20236;-77
2024/01/23 11:28:59;;;;;;;11.60;1.60;;;9.40;99.90;;;;;;4935784;29;20626;-77
2024/01/23 11:31:28;;;;;;;5.57;1.10;;;9.50;99.90;;;;;;4916811;29;20564;-77
2024/01/23 11:34:38;;;;;;;11.13;1.27;;;9.50;99.90;;;;;;4916729;29;20214;-77
2024/01/23 11:37:44;;;;;;;6.87;1.50;;;9.60;99.90;;;;;;4916078;29;20625;-77
2024/01/23 11:40:31;;;;;;;8.23;2.20;;;9.70;99.90;;;;;;4934288;29;20580;-77
2024/01/23 11:43:00;;;;;;;5.47;0.93;;;9.70;99.90;;;;;;4937368;29;20215;-77
2024/01/23 11:45:28;;;;;;;7.90;1.20;;;9.80;99.90;;;;;;4932017;29;20771;-77
2024/01/23 11:47:57;;;;;;;8.87;1.60;;;9.80;99.90;;;;;;4916590;29;20693;-77
2024/01/23 11:50:24;;;;;;;7.47;1.20;;;9.90;99.90;;;;;;4924520;29;20313;-79
2024/01/23 11:52:54;;;;;;;8.60;1.33;;;9.90;99.90;;;;;;4917055;29;20213;-79
2024/01/23 11:55:21;;;;;;;11.30;1.47;;;9.90;99.90;;;;;;4920071;29;20229;-79
2024/01/23 11:57:49;;;;;;;6.60;1.23;;;10.10;99.90;;;;;;4920293;29;20237;-78
2024/01/23 12:00:18;;;;;;;9.30;1.53;;;10.00;99.90;;;;;;4920255;29;20213;-78
2024/01/23 12:02:46;;;;;;;7.83;1.90;;;10.20;99.90;;;;;;4919890;29;20217;-78
2024/01/23 12:05:13;;;;;;;13.07;1.57;;;10.30;99.90;;;;;;4920060;29;20264;-77
2024/01/23 12:07:40;;;;;;;16.47;1.83;;;10.30;99.90;;;;;;4920024;29;20218;-76
2024/01/23 12:10:09;;;;;;;12.80;1.87;;;10.20;99.90;;;;;;4919669;29;20210;-77
2024/01/23 12:12:37;;;;;;;11.03;2.10;;;10.00;99.90;;;;;;4919941;29;20301;-77
2024/01/23 12:15:05;;;;;;;5.63;1.20;;;10.10;99.90;;;;;;4925438;29;20233;-79
2024/01/23 12:17:33;;;;;;;7.00;1.13;;;10.10;99.90;;;;;;4939357;29;20229;-79
2024/01/23 12:20:04;;;;;;;7.33;1.60;;;10.30;99.90;;;;;;4931241;29;20229;-81
2024/01/23 12:22:31;;;;;;;5.13;1.10;;;10.20;99.90;;;;;;4958041;29;20215;-84
2024/01/23 12:24:58;;;;;;;10.43;1.27;;;10.30;99.90;;;;;;4947638;29;20225;-81
2024/01/23 12:27:27;;;;;;;5.13;1.67;;;10.10;99.90;;;;;;4939059;29;20215;-82
2024/01/23 12:29:53;;;;;;;9.70;1.23;;;10.10;99.90;;;;;;4939066;29;20211;-81
2024/01/23 12:32:20;;;;;;;11.30;1.20;;;10.00;99.90;;;;;;4941755;29;20604;-81
2024/01/23 12:34:48;;;;;;;3.97;0.93;;;10.00;99.90;;;;;;4949429;29;20239;-80
2024/01/23 12:37:16;;;;;;;8.63;1.33;;;10.00;99.90;;;;;;4938776;29;20204;-76
2024/01/23 12:39:44;;;;;;;6.23;1.43;;;10.00;99.90;;;;;;4938305;29;20560;-78
2024/01/23 12:42:10;;;;;;;11.23;1.20;;;10.00;99.90;;;;;;4938893;29;20563;-80
2024/01/23 12:44:39;;;;;;;5.50;0.97;;;10.00;99.90;;;;;;4937874;29;20229;-79
2024/01/23 12:47:14;;;;;;;3.73;1.17;;;10.10;99.90;;;;;;4939303;29;20212;-81
2024/01/23 12:49:41;;;;;;;4.20;1.30;;;10.00;99.90;;;;;;4932644;29;20209;-79
2024/01/23 12:52:15;;;;;;;13.30;1.60;;;10.00;99.90;;;;;;4919873;29;20545;-80
2024/01/23 12:54:42;;;;;;;4.47;1.17;;;9.90;99.90;;;;;;4926968;29;20572;-79
2024/01/23 12:57:09;;;;;;;5.80;0.97;;;9.80;99.90;;;;;;4939010;29;20209;-82
2024/01/23 12:59:36;;;;;;;6.83;1.43;;;9.70;99.90;;;;;;4938934;29;20267;-85
2024/01/23 13:02:04;;;;;;;8.90;1.47;;;9.60;99.90;;;;;;4938016;29;20205;-77
2024/01/23 13:04:31;;;;;;;8.97;1.03;;;9.50;99.90;;;;;;4936858;29;20656;-78
2024/01/23 13:06:58;;;;;;;9.70;1.13;;;9.60;99.90;;;;;;4938766;29;20240;-81
2024/01/23 13:09:25;;;;;;;2.10;0.80;;;9.50;99.90;;;;;;4939475;29;20276;-78
2024/01/23 13:11:53;;;;;;;4.73;1.00;;;9.50;99.90;;;;;;4919229;29;20213;-78
2024/01/23 13:14:20;;;;;;;2.03;0.70;;;9.60;99.90;;;;;;4924227;29;20213;-83
2024/01/23 13:16:47;;;;;;;5.03;1.10;;;9.70;99.90;;;;;;4937737;29;20572;-82
2024/01/23 13:19:15;;;;;;;8.80;1.60;;;9.80;99.90;;;;;;4938343;29;20240;-83
2024/01/23 13:21:42;;;;;;;3.90;0.80;;;9.80;99.90;;;;;;4938678;29;20247;-77
2024/01/23 13:24:09;;;;;;;5.03;1.00;;;9.90;99.90;;;;;;4937426;29;20227;-76
2024/01/23 13:26:36;;;;;;;8.40;1.47;;;10.00;99.90;;;;;;4934816;29;20295;-83
2024/01/23 13:29:03;;;;;;;8.97;1.03;;;10.00;99.90;;;;;;4937619;29;20622;-79
2024/01/23 13:31:35;;;;;;;8.13;1.13;;;10.00;99.90;;;;;;4937045;29;20382;-78
2024/01/23 13:34:02;;;;;;;4.83;1.47;;;9.90;99.90;;;;;;4937514;29;20678;-78
2024/01/23 13:36:30;;;;;;;1.80;0.67;;;9.80;99.90;;;;;;4937645;29;20216;-78
2024/01/23 13:38:57;;;;;;;7.27;1.10;;;9.80;99.90;;;;;;4937573;29;20314;-78
2024/01/23 13:41:24;;;;;;;16.53;1.47;;;9.80;99.90;;;;;;4937750;29;20296;-79
2024/01/23 13:43:51;;;;;;;5.13;1.10;;;9.70;99.90;;;;;;4937990;29;20205;-79
2024/01/23 13:46:19;;;;;;;8.20;1.00;;;9.70;99.90;;;;;;4939909;29;20229;-79
2024/01/23 13:48:46;;;;;;;7.90;1.63;;;9.60;99.90;;;;;;4938215;29;20284;-79
2024/01/23 13:51:13;;;;;;;4.77;1.40;;;9.50;99.90;;;;;;4937811;29;20664;-78
2024/01/23 13:53:42;;;;;;;4.87;1.00;;;9.50;99.90;;;;;;4937397;29;20241;-79
2024/01/23 13:56:08;;;;;;;4.63;1.10;;;9.40;99.90;;;;;;4937306;29;20236;-78
2024/01/23 13:58:35;;;;;;;6.67;1.07;;;9.30;99.90;;;;;;4937224;29;20332;-78
2024/01/23 14:01:02;;;;;;;3.87;0.90;;;9.40;99.90;;;;;;4937060;29;20299;-79
2024/01/23 14:03:33;;;;;;;6.03;0.90;;;9.30;99.90;;;;;;4936933;29;20300;-78
2024/01/23 14:06:00;;;;;;;7.30;1.10;;;9.30;99.90;;;;;;4937174;29;20280;-80
2024/01/23 14:08:27;;;;;;;7.03;1.00;;;9.20;99.90;;;;;;4936753;29;20303;-78
2024/01/23 14:10:56;;;;;;;3.53;0.93;;;9.10;99.90;;;;;;4937029;29;20213;-79
2024/01/23 14:13:23;;;;;;;5.43;1.07;;;9.20;99.90;;;;;;4936947;29;20209;-79
2024/01/23 14:15:50;;;;;;;5.83;1.17;;;9.00;99.90;;;;;;4936707;29;20241;-80
2024/01/23 14:18:17;;;;;;;9.97;1.80;;;9.00;99.90;;;;;;4937009;29;20319;-79
2024/01/23 14:20:44;;;;;;;8.20;1.20;;;9.00;99.90;;;;;;4936876;29;20251;-78
2024/01/23 14:23:10;;;;;;;4.77;0.77;;;9.00;99.90;;;;;;4937051;29;20251;-79
2024/01/23 14:25:37;;;;;;;4.60;0.80;;;9.00;99.90;;;;;;4936602;29;20312;-78
2024/01/23 14:28:06;;;;;;;6.90;1.27;;;9.00;99.90;;;;;;4936750;29;20215;-79
2024/01/23 14:30:33;;;;;;;3.73;0.70;;;9.00;99.90;;;;;;4935623;29;20355;-78
2024/01/23 14:33:00;;;;;;;5.93;1.40;;;8.90;99.90;;;;;;4936921;29;20213;-78
2024/01/23 14:35:27;;;;;;;9.20;1.47;;;8.90;99.90;;;;;;4936715;29;20233;-80
2024/01/23 14:37:55;;;;;;;4.17;0.63;;;8.80;99.90;;;;;;4936675;29;20227;-80
2024/01/23 14:40:22;;;;;;;5.40;1.00;;;8.80;99.90;;;;;;4937257;29;20213;-80
2024/01/23 14:42:51;;;;;;;4.50;0.73;;;8.70;99.90;;;;;;4936930;29;20211;-79
2024/01/23 14:45:20;;;;;;;13.00;1.03;;;8.70;99.90;;;;;;4936344;29;20225;-79
2024/01/23 14:47:47;;;;;;;5.33;0.70;;;8.70;99.90;;;;;;4936775;29;20296;-79
2024/01/23 14:50:13;;;;;;;5.93;1.00;;;8.70;99.90;;;;;;4936413;29;20291;-77
2024/01/23 14:52:41;;;;;;;6.33;2.13;;;8.70;99.90;;;;;;4936360;29;20264;-79
2024/01/23 14:55:08;;;;;;;4.27;0.80;;;8.80;99.90;;;;;;4936503;29;20700;-78
2024/01/23 14:57:39;;;;;;;3.80;0.80;;;8.70;99.90;;;;;;4936108;29;20209;-78
2024/01/23 15:00:09;;;;;;;5.47;1.10;;;8.70;99.90;;;;;;4936270;29;20243;-79
2024/01/23 15:02:37;;;;;;;6.23;0.50;;;8.70;99.90;;;;;;4936210;29;20296;-78
2024/01/23 15:05:07;;;;;;;9.33;1.20;;;8.60;99.90;;;;;;4940508;29;20741;-79
2024/01/23 15:07:34;;;;;;;3.27;0.93;;;8.60;99.90;;;;;;4942064;29;20221;-79
2024/01/23 15:10:01;;;;;;;7.50;0.97;;;8.60;99.90;;;;;;4941347;29;20246;-79
2024/01/23 15:12:28;;;;;;;3.70;1.00;;;8.60;99.90;;;;;;4940347;29;20215;-79
2024/01/23 15:14:55;;;;;;;8.57;1.10;;;8.60;99.90;;;;;;4939559;29;20260;-79
2024/01/23 15:17:22;;;;;;;4.47;1.10;;;8.60;99.90;;;;;;4939767;29;20248;-78
2024/01/23 15:19:50;;;;;;;6.73;1.57;;;8.50;99.90;;;;;;4939305;29;20323;-79
2024/01/23 15:22:17;;;;;;;8.83;1.53;;;8.60;99.90;;;;;;4937212;29;20217;-79
2024/01/23 15:24:44;;;;;;;8.47;1.43;;;8.50;99.90;;;;;;4937164;29;20315;-78
2024/01/23 15:27:11;;;;;;;3.27;0.83;;;8.50;99.90;;;;;;4938063;29;20341;-79
2024/01/23 15:29:38;;;;;;;5.87;0.70;;;8.50;99.90;;;;;;4937535;29;20219;-79
2024/01/23 15:32:06;;;;;;;7.70;1.10;;;8.50;99.90;;;;;;4937834;29;20212;-78
2024/01/23 15:34:33;;;;;;;3.50;0.63;;;8.50;99.90;;;;;;4937543;29;20316;-79
2024/01/23 15:37:01;;;;;;;3.57;1.80;;;8.50;99.90;;;;;;4937257;29;20296;-78
2024/01/23 15:39:28;;;;;;;7.13;0.90;;;8.50;99.90;;;;;;4936921;29;20296;-78
2024/01/23 15:41:55;;;;;;;3.10;0.90;;;8.70;99.90;;;;;;4937403;29;20232;-79
2024/01/23 15:44:22;;;;;;;2.50;0.63;;;8.60;99.90;;;;;;4936542;29;20665;-78
2024/01/23 15:46:49;;;;;;;6.13;0.93;;;8.60;99.90;;;;;;4936527;29;20668;-78
2024/01/23 15:49:16;;;;;;;7.87;1.70;;;8.60;99.90;;;;;;4936513;29;20264;-78
2024/01/23 15:51:46;;;;;;;6.33;1.13;;;8.70;99.90;;;;;;4936209;29;20300;-79
2024/01/23 15:54:14;;;;;;;4.83;1.50;;;8.60;99.90;;;;;;4936684;29;20208;-79
2024/01/23 15:56:42;;;;;;;1.43;0.50;;;8.60;99.90;;;;;;4935897;29;20215;-79
2024/01/23 15:59:08;;;;;;;4.90;0.90;;;8.60;99.90;;;;;;4935839;29;20340;-79
2024/01/23 16:01:35;;;;;;;4.27;0.73;;;8.60;99.90;;;;;;4936009;29;20686;-77
2024/01/23 16:04:04;;;;;;;5.40;1.07;;;8.60;99.90;;;;;;4935629;29;20219;-79
2024/01/23 16:06:31;;;;;;;2.43;0.77;;;8.60;99.90;;;;;;4935922;29;20231;-78
2024/01/23 16:08:58;;;;;;;11.53;1.73;;;8.50;99.90;;;;;;4935475;29;20216;-80
2024/01/23 16:11:26;;;;;;;5.47;0.80;;;8.50;99.90;;;;;;4935728;29;20244;-76
2024/01/23 16:13:53;;;;;;;3.77;0.90;;;8.50;99.90;;;;;;4935621;29;20735;-78
2024/01/23 16:16:20;;;;;;;5.70;1.20;;;8.50;99.90;;;;;;4936023;29;20228;-78
2024/01/23 16:18:47;;;;;;;3.20;0.83;;;8.50;99.90;;;;;;4935335;29;20236;-79
2024/01/23 16:21:14;;;;;;;3.07;1.23;;;8.50;99.90;;;;;;4935786;29;20216;-78
2024/01/23 16:23:41;;;;;;;5.77;1.13;;;8.50;99.90;;;;;;4935683;29;20654;-80
2024/01/23 16:26:09;;;;;;;10.87;1.63;;;8.50;99.90;;;;;;4935510;29;20240;-80
2024/01/23 16:28:37;;;;;;;2.47;0.80;;;8.50;99.90;;;;;;4935124;29;20743;-79
2024/01/23 16:31:04;;;;;;;4.80;0.80;;;8.50;99.90;;;;;;4935110;29;20211;-80
2024/01/23 16:33:31;;;;;;;4.93;0.97;;;8.50;99.90;;;;;;4936003;29;20300;-79
2024/01/23 16:35:58;;;;;;;1.80;0.67;;;8.60;99.90;;;;;;4936402;29;20807;-80
2024/01/23 16:38:25;;;;;;;8.57;0.87;;;8.60;99.90;;;;;;4936290;29;20221;-79
2024/01/23 16:40:52;;;;;;;1.93;0.63;;;8.60;99.90;;;;;;4938502;29;20327;-79
2024/01/23 16:43:18;;;;;;;5.20;1.20;;;8.60;99.90;;;;;;4938865;29;20246;-79
2024/01/23 16:45:46;;;;;;;6.37;1.70;;;8.60;99.90;;;;;;4938820;29;20225;-80
2024/01/23 16:48:13;;;;;;;5.17;0.83;;;8.70;99.90;;;;;;4939384;29;20295;-79
2024/01/23 16:50:40;;;;;;;2.90;0.70;;;8.70;99.90;;;;;;4938800;29;20240;-79
2024/01/23 16:53:07;;;;;;;6.17;1.37;;;8.70;99.90;;;;;;4938660;29;20548;-79
2024/01/23 16:55:34;;;;;;;4.53;0.80;;;8.70;99.90;;;;;;4937997;29;20225;-80
2024/01/23 16:58:01;;;;;;;4.70;0.90;;;8.70;99.90;;;;;;4938410;29;20303;-80
2024/01/23 17:00:29;;;;;;;1.70;0.60;;;8.70;99.90;;;;;;4938280;29;20315;-80
2024/01/23 17:02:59;;;;;;;8.33;1.37;;;8.80;99.90;;;;;;4938347;29;20208;-79
2024/01/23 17:05:26;;;;;;;5.07;0.83;;;8.80;99.90;;;;;;4937924;29;20252;-79
2024/01/23 17:07:53;;;;;;;3.43;0.70;;;8.90;99.90;;;;;;4938334;29;20251;-79
2024/01/23 17:10:20;;;;;;;3.87;1.93;;;8.90;99.90;;;;;;4938586;29;20631;-79
2024/01/23 17:12:47;;;;;;;6.87;1.30;;;8.90;99.90;;;;;;4938357;29;20240;-78
2024/01/23 17:15:14;;;;;;;6.80;1.40;;;8.90;99.90;;;;;;4938101;29;20707;-79
2024/01/23 17:17:41;;;;;;;4.30;0.70;;;9.00;99.90;;;;;;4938178;29;20303;-78
2024/01/23 17:20:11;;;;;;;5.37;0.70;;;9.00;99.90;;;;;;4937916;29;20332;-80
2024/01/23 17:22:38;;;;;;;3.57;0.90;;;9.00;99.90;;;;;;4938016;29;20300;-78
2024/01/23 17:25:06;;;;;;;5.83;1.17;;;9.10;99.90;;;;;;4937906;29;20235;-80
2024/01/23 17:27:33;;;;;;;2.60;0.83;;;9.10;99.90;;;;;;4936193;29;20236;-80
2024/01/23 17:29:59;;;;;;;2.47;0.87;;;9.20;99.90;;;;;;4943040;29;20277;-82
2024/01/23 17:32:28;;;;;;;3.63;0.80;;;9.30;99.90;;;;;;4932027;29;20234;-82
2024/01/23 17:34:54;;;;;;;8.17;1.13;;;9.30;99.90;;;;;;4964066;28;20216;-80
2024/01/23 17:37:23;;;;;;;6.37;1.43;;;9.30;99.90;;;;;;4956980;29;20218;-80
2024/01/23 17:39:50;;;;;;;3.13;0.90;;;9.30;99.90;;;;;;4940200;29;20323;-81
2024/01/23 17:42:17;;;;;;;14.13;2.20;;;9.30;99.90;;;;;;4937613;29;20333;-82
2024/01/23 17:44:44;;;;;;;4.37;0.80;;;9.40;99.90;;;;;;4938504;29;20236;-82
2024/01/23 17:47:11;;;;;;;10.27;1.20;;;9.40;99.90;;;;;;4940021;29;20205;-82
2024/01/23 17:49:37;;;;;;;7.43;1.47;;;9.50;99.90;;;;;;4937863;29;20304;-82
2024/01/23 17:52:05;;;;;;;6.27;1.47;;;9.50;99.90;;;;;;4931843;29;20218;-85
2024/01/23 17:54:33;;;;;;;4.77;0.93;;;9.60;99.90;;;;;;4935379;29;20714;-79
2024/01/23 17:57:00;;;;;;;8.47;0.93;;;9.60;99.90;;;;;;4950964;29;20704;-81
2024/01/23 17:59:27;;;;;;;16.47;1.73;;;9.70;99.90;;;;;;4941494;29;20320;-78
2024/01/23 18:01:54;;;;;;;3.93;1.57;;;9.70;99.90;;;;;;4935201;29;20217;-78
2024/01/23 18:04:21;;;;;;;4.33;1.10;;;9.80;99.90;;;;;;4936860;29;20303;-79
2024/01/23 18:06:48;;;;;;;11.33;2.03;;;9.90;99.90;;;;;;4934671;29;20214;-79
2024/01/23 18:09:17;;;;;;;7.27;1.13;;;9.80;99.90;;;;;;4921721;29;20217;-78
2024/01/23 18:11:45;;;;;;;3.80;1.13;;;9.90;99.90;;;;;;4937396;29;20215;-78
2024/01/23 18:14:12;;;;;;;4.10;2.03;;;9.90;99.90;;;;;;4936134;29;20208;-78
2024/01/23 18:16:39;;;;;;;5.47;2.10;;;10.10;99.90;;;;;;4934962;29;20223;-78
2024/01/23 18:19:06;;;;;;;4.07;1.10;;;10.00;99.90;;;;;;4933666;29;20209;-77
2024/01/23 18:21:33;;;;;;;6.47;1.20;;;10.00;99.90;;;;;;4938539;29;20703;-78
2024/01/23 18:23:59;;;;;;;4.53;1.80;;;10.00;99.90;;;;;;4938695;29;20296;-78
2024/01/23 18:26:26;;;;;;;3.93;0.70;;;10.00;99.90;;;;;;4936899;29;20276;-78
2024/01/23 18:28:57;;;;;;;5.10;1.43;;;10.10;99.90;;;;;;4936548;29;20213;-78
2024/01/23 18:31:24;;;;;;;4.87;0.93;;;10.10;99.90;;;;;;4935856;29;20217;-78
2024/01/23 18:33:51;;;;;;;10.57;1.77;;;10.10;99.90;;;;;;4936391;29;20213;-78
2024/01/23 18:36:18;;;;;;;7.90;1.10;;;10.10;99.90;;;;;;4935588;29;20699;-77
2024/01/23 18:38:45;;;;;;;2.67;1.00;;;10.20;99.90;;;;;;4934829;29;20210;-77
2024/01/23 18:41:11;;;;;;;5.30;1.07;;;10.20;99.90;;;;;;4920424;29;20232;-77
2024/01/23 18:43:39;;;;;;;6.97;1.13;;;10.20;99.90;;;;;;4936285;29;20215;-77
2024/01/23 18:46:08;;;;;;;9.37;1.60;;;10.30;99.90;;;;;;4935656;29;20235;-79
2024/01/23 18:48:35;;;;;;;10.33;2.03;;;10.40;99.90;;;;;;4935674;29;20295;-77
2024/01/23 18:51:02;;;;;;;5.93;1.20;;;10.30;99.90;;;;;;4935489;28;20217;-77
2024/01/23 18:53:29;;;;;;;8.77;1.90;;;10.30;99.90;;;;;;4935655;29;20679;-78
2024/01/23 18:55:56;;;;;;;6.00;1.40;;;10.20;99.90;;;;;;4935408;29;20767;-77
2024/01/23 18:58:23;;;;;;;6.60;1.97;;;10.20;99.90;;;;;;4936014;29;20219;-78
2024/01/23 19:00:50;;;;;;;9.40;1.53;;;10.20;99.90;;;;;;4935623;29;20256;-77
2024/01/23 19:03:19;;;;;;;7.83;2.13;;;10.30;99.90;;;;;;4934527;29;20212;-78
2024/01/23 19:05:45;;;;;;;8.83;1.70;;;10.30;99.90;;;;;;4935754;29;20584;-79
2024/01/23 19:08:12;;;;;;;6.77;1.87;;;10.40;99.90;;;;;;4935668;29;20308;-80
2024/01/23 19:10:39;;;;;;;3.37;1.47;;;10.40;99.90;;;;;;4928747;29;20209;-79
2024/01/23 19:13:06;;;;;;;8.20;1.17;;;10.40;99.90;;;;;;4926684;29;20212;-80
2024/01/23 19:15:33;;;;;;;6.60;2.43;;;10.50;99.90;;;;;;4935040;29;20311;-78
2024/01/23 19:18:00;;;;;;;10.10;2.70;;;10.60;99.90;;;;;;4935439;29;20312;-79
2024/01/23 19:20:28;;;;;;;4.47;1.40;;;10.60;99.90;;;;;;4935359;29;20315;-80
2024/01/23 19:22:55;;;;;;;5.07;1.43;;;10.60;99.90;;;;;;4935564;29;20221;-78
2024/01/23 19:25:22;;;;;;;5.47;1.40;;;10.60;99.90;;;;;;4935214;29;20316;-80
2024/01/23 19:27:49;;;;;;;10.33;1.40;;;10.60;99.90;;;;;;4935635;29;20292;-79
2024/01/23 19:30:16;;;;;;;5.57;1.40;;;10.60;99.90;;;;;;4935513;29;20299;-79
2024/01/23 19:32:43;;;;;;;5.97;1.77;;;10.70;99.90;;;;;;4937333;29;20209;-79
2024/01/23 19:35:10;;;;;;;7.60;2.03;;;10.70;99.90;;;;;;4946013;28;20224;-79
2024/01/23 19:37:38;;;;;;;10.23;1.80;;;10.60;99.90;;;;;;4935073;29;20299;-80
2024/01/23 19:40:06;;;;;;;5.73;2.07;;;10.70;99.90;;;;;;4935087;29;20770;-80
2024/01/23 19:42:33;;;;;;;6.93;1.80;;;10.60;99.90;;;;;;4935113;29;20208;-79
2024/01/23 19:45:00;;;;;;;6.50;2.00;;;10.70;99.90;;;;;;4925268;29;20324;-80
2024/01/23 19:47:27;;;;;;;7.63;1.63;;;10.70;99.90;;;;;;4920652;29;20677;-79
2024/01/23 19:49:54;;;;;;;8.17;1.40;;;10.70;99.90;;;;;;4935170;29;20299;-78
2024/01/23 19:52:21;;;;;;;8.20;1.80;;;10.80;99.90;;;;;;4934966;29;20641;-79
2024/01/23 19:54:49;;;;;;;6.23;2.00;;;10.80;99.90;;;;;;4935271;29;20321;-78
2024/01/23 19:57:16;;;;;;;8.30;1.90;;;10.80;99.90;;;;;;4935008;29;20304;-78
2024/01/23 19:59:43;;;;;;;10.13;1.87;;;10.90;99.90;;;;;;4934786;29;20660;-79
2024/01/23 20:02:10;;;;;;;4.90;1.03;;;10.90;99.90;;;;;;4935235;29;20205;-79
2024/01/23 20:04:36;;;;;;;6.00;1.47;;;10.90;99.90;;;;;;4934745;29;20231;-80
2024/01/23 20:07:03;;;;;;;11.80;1.30;;;10.90;99.90;;;;;;4935421;29;20216;-79
2024/01/23 20:09:30;;;;;;;9.70;1.50;;;11.00;99.90;;;;;;4934605;29;20656;-80
2024/01/23 20:11:59;;;;;;;7.33;1.50;;;11.00;99.90;;;;;;4934995;29;20706;-79
2024/01/23 20:14:26;;;;;;;8.43;1.20;;;11.10;99.90;;;;;;4936803;29;20592;-78
2024/01/23 20:16:53;;;;;;;7.07;0.90;;;11.10;99.90;;;;;;4937170;29;20219;-80
2024/01/23 20:19:20;;;;;;;7.63;1.00;;;11.20;99.90;;;;;;4922994;29;20214;-79
2024/01/23 20:21:47;;;;;;;4.67;1.20;;;11.20;99.90;;;;;;4933809;29;20319;-79
2024/01/23 20:24:14;;;;;;;5.30;1.00;;;11.30;99.90;;;;;;4938318;29;20688;-78
2024/01/23 20:26:41;;;;;;;11.13;1.53;;;11.30;99.90;;;;;;4938607;29;20727;-79
2024/01/23 20:29:09;;;;;;;6.03;1.40;;;11.40;99.90;;;;;;4938834;29;20631;-79
2024/01/23 20:31:36;;;;;;;8.90;1.90;;;11.50;99.90;;;;;;4938599;29;20227;-79
2024/01/23 20:34:03;;;;;;;5.57;1.10;;;11.60;99.90;;;;;;4938662;29;20545;-79
2024/01/23 20:36:29;;;;;;;8.33;0.80;;;11.60;99.90;;;;;;4938119;29;20237;-79
2024/01/23 20:38:56;;;;;;;6.30;0.97;;;11.70;99.90;;;;;;4938292;29;20226;-78
2024/01/23 20:41:24;;;;;;;6.60;1.50;;;11.80;99.90;;;;;;4938095;29;20271;-79
2024/01/23 20:43:51;;;;;;;8.27;0.90;;;11.80;99.90;;;;;;4938128;29;20256;-79
2024/01/23 20:46:19;;;;;;;5.33;0.90;;;11.90;99.90;;;;;;4938179;29;20719;-79
2024/01/23 20:48:46;;;;;;;6.93;1.00;;;11.90;99.90;;;;;;4938112;29;20209;-80
2024/01/23 20:51:13;;;;;;;3.07;0.80;;;11.90;99.90;;;;;;4934096;29;20301;-78
2024/01/23 20:53:40;;;;;;;4.90;0.97;;;12.10;99.90;;;;;;4932791;29;20303;-80
2024/01/23 20:56:07;;;;;;;7.73;1.27;;;12.10;99.90;;;;;;4938005;29;20231;-78
2024/01/23 20:58:34;;;;;;;3.73;0.77;;;12.10;99.90;;;;;;4937684;29;20685;-78
2024/01/23 21:01:01;;;;;;;5.40;1.10;;;12.20;99.90;;;;;;4929653;29;20327;-79
2024/01/23 21:03:29;;;;;;;1.40;0.70;;;12.20;99.90;;;;;;4937687;29;20672;-79
2024/01/23 21:05:56;;;;;;;6.73;0.80;;;12.30;99.90;;;;;;4938141;29;20335;-80
2024/01/23 21:08:23;;;;;;;4.63;1.07;;;12.40;99.90;;;;;;4937603;29;20220;-79
2024/01/23 21:10:50;;;;;;;5.60;1.07;;;12.40;99.90;;;;;;4937459;29;20668;-79
2024/01/23 21:13:18;;;;;;;3.40;0.77;;;12.40;99.90;;;;;;4937998;29;20236;-79
2024/01/23 21:15:45;;;;;;;3.33;0.80;;;12.40;99.90;;;;;;4937902;29;20284;-79
2024/01/23 21:18:12;;;;;;;4.70;0.80;;;12.40;99.90;;;;;;4938004;29;20556;-78
2024/01/23 21:20:40;;;;;;;2.80;0.73;;;12.40;99.90;;;;;;4937406;29;20327;-79
2024/01/23 21:23:07;;;;;;;4.20;0.90;;;12.50;99.90;;;;;;4937415;29;20296;-80
2024/01/23 21:25:34;;;;;;;6.47;0.80;;;12.50;99.90;;;;;;4935856;29;20655;-79
2024/01/23 21:28:01;;;;;;;3.97;1.17;;;12.50;99.90;;;;;;4941291;29;20217;-78
2024/01/23 21:30:28;;;;;;;4.07;0.60;;;12.50;99.90;;;;;;4945855;29;20241;-80
2024/01/23 21:32:55;;;;;;;1.47;0.97;;;12.70;99.90;;;;;;4943126;29;20211;-78
2024/01/23 21:35:22;;;;;;;6.73;1.37;;;12.70;99.90;;;;;;4925007;29;20239;-80
2024/01/23 21:37:52;;;;;;;2.83;0.60;;;12.60;99.90;;;;;;4937312;29;20217;-78
2024/01/23 21:40:19;;;;;;;3.27;0.70;;;12.70;99.90;;;;;;4925500;29;20211;-79
2024/01/23 21:42:46;;;;;;;3.10;0.53;;;12.70;99.90;;;;;;4937081;29;20576;-79
2024/01/23 21:45:13;;;;;;;4.33;2.13;;;12.70;99.90;;;;;;4937251;29;20343;-79
2024/01/23 21:47:40;;;;;;;3.80;0.97;;;12.70;99.90;;;;;;4936964;29;20240;-79
2024/01/23 21:50:09;;;;;;;5.13;1.23;;;12.70;99.90;;;;;;4937323;29;20637;-79
2024/01/23 21:52:36;;;;;;;3.23;1.20;;;12.80;99.90;;;;;;4937053;29;20221;-79
2024/01/23 21:55:05;;;;;;;3.33;0.80;;;12.80;99.90;;;;;;4936813;29;20267;-79
2024/01/23 21:57:33;;;;;;;5.80;0.87;;;12.70;99.90;;;;;;4936597;29;20215;-78
2024/01/23 22:00:00;;;;;;;3.67;0.80;;;12.70;99.90;;;;;;4936901;29;20240;-78